Time;durP1;ratioP1;P1;durP2;ratioP2;P2;SDS_P1;SDS_P2;PMS_P1;PMS_P2;Temp;Humidity;BMP_temperature;BMP_pressure;BME280_temperature;BME280_humidity;BME280_pressure;Samples;Min_cycle;Max_cycle;Signal;HPM_P1;HPM_P2
2022/08/21 00:01:56;;;;;;;11.20;6.00;;;;;;;25.30;59.80;94419.69;5086218;28;20035;-56
2022/08/21 00:04:22;;;;;;;11.75;5.45;;;;;;;25.12;60.10;94426.84;5100078;28;20028;-55
2022/08/21 00:06:48;;;;;;;8.70;5.07;;;;;;;25.22;60.12;94414.16;5086112;28;20119;-56
2022/08/21 00:09:13;;;;;;;11.48;5.50;;;;;;;25.10;60.11;94428.66;5101052;28;20036;-55
2022/08/21 00:11:39;;;;;;;9.40;6.07;;;;;;;25.02;60.53;94422.38;5104173;28;20430;-57
2022/08/21 00:14:05;;;;;;;10.05;6.22;;;;;;;25.09;60.33;94427.16;5103196;28;20887;-55
2022/08/21 00:16:31;;;;;;;9.73;6.10;;;;;;;25.03;60.34;94421.13;5103195;28;20044;-55
2022/08/21 00:18:56;;;;;;;10.68;6.43;;;;;;;25.17;59.97;94417.78;5102956;28;20103;-54
2022/08/21 00:21:22;;;;;;;14.25;7.55;;;;;;;25.12;60.02;94412.44;5103866;28;20470;-55
2022/08/21 00:23:47;;;;;;;12.70;6.80;;;;;;;25.10;60.26;94399.31;5101885;28;20063;-55
2022/08/21 00:26:13;;;;;;;10.48;6.25;;;;;;;25.10;60.53;94426.63;5103384;28;20036;-55
2022/08/21 00:28:38;;;;;;;11.55;6.40;;;;;;;25.08;60.31;94404.59;5100367;28;20032;-55
2022/08/21 00:31:04;;;;;;;9.70;6.13;;;;;;;25.15;59.88;94398.44;5100422;28;20143;-55
2022/08/21 00:33:29;;;;;;;11.48;6.72;;;;;;;25.07;60.31;94400.38;5103827;28;20031;-55
2022/08/21 00:35:55;;;;;;;9.70;6.15;;;;;;;25.13;60.05;94395.50;5102250;28;20037;-58
2022/08/21 00:38:21;;;;;;;10.35;5.93;;;;;;;25.03;60.41;94408.19;5098605;28;20040;-55
2022/08/21 00:40:53;;;;;;;10.98;5.97;;;;;;;25.17;59.97;94398.66;5103623;28;20120;-55
2022/08/21 00:43:23;;;;;;;11.95;7.05;;;;;;;25.18;59.91;94402.81;5101604;28;20047;-56
2022/08/21 00:45:49;;;;;;;10.15;5.93;;;;;;;25.18;59.87;94397.38;5078008;28;20082;-54
2022/08/21 00:48:14;;;;;;;11.00;5.65;;;;;;;25.17;60.18;94404.13;5083511;28;20759;-55
2022/08/21 00:50:46;;;;;;;11.13;6.20;;;;;;;25.07;60.56;94411.31;5103484;28;20035;-54
2022/08/21 00:53:11;;;;;;;11.63;6.20;;;;;;;25.05;60.33;94411.13;5064361;28;20040;-55
2022/08/21 00:55:37;;;;;;;10.88;6.45;;;;;;;25.12;60.18;94410.44;5084765;28;20097;-55
2022/08/21 00:58:03;;;;;;;8.95;5.72;;;;;;;25.10;60.17;94410.25;5081574;28;20027;-54
2022/08/21 01:00:32;;;;;;;8.82;5.90;;;;;;;25.04;60.19;94404.19;5102045;28;20058;-55
2022/08/21 01:02:58;;;;;;;12.00;7.18;;;;;;;25.02;60.04;94395.81;5099808;28;20670;-55
2022/08/21 01:05:24;;;;;;;9.68;5.57;;;;;;;25.10;60.04;94396.59;5093907;28;20055;-55
2022/08/21 01:07:49;;;;;;;10.10;6.22;;;;;;;25.11;60.37;94406.25;5097698;28;20052;-54
2022/08/21 01:10:15;;;;;;;10.55;5.88;;;;;;;24.97;59.93;94388.44;5096776;28;20040;-55
2022/08/21 01:12:40;;;;;;;9.55;5.90;;;;;;;25.04;60.30;94393.25;5101091;28;20552;-55
2022/08/21 01:15:07;;;;;;;9.32;5.95;;;;;;;24.89;60.32;94360.34;5066751;28;20047;-55
2022/08/21 01:17:32;;;;;;;11.48;6.15;;;;;;;25.00;60.26;94386.66;5083120;28;20036;-55
2022/08/21 01:19:58;;;;;;;13.20;6.70;;;;;;;25.03;60.74;94374.66;5084739;28;20040;-55
2022/08/21 01:22:24;;;;;;;10.52;5.78;;;;;;;25.05;60.38;94372.88;5102482;28;20138;-55
2022/08/21 01:24:49;;;;;;;11.60;5.97;;;;;;;24.99;60.21;94382.47;5084787;28;20110;-54
2022/08/21 01:27:15;;;;;;;9.00;5.63;;;;;;;24.87;60.26;94368.34;5102793;28;20919;-54
2022/08/21 01:29:56;;;;;;;8.85;5.70;;;;;;;24.96;60.43;94370.59;5084699;28;20036;-55
2022/08/21 01:32:22;;;;;;;8.77;5.40;;;;;;;24.99;60.46;94369.56;5066168;28;20039;-55
2022/08/21 01:34:48;;;;;;;8.32;5.57;;;;;;;24.96;60.26;94358.91;5103181;28;20051;-55
2022/08/21 01:37:14;;;;;;;9.85;5.55;;;;;;;24.98;60.14;94362.59;5101265;28;20073;-55
2022/08/21 01:39:40;;;;;;;8.73;5.03;;;;;;;24.93;60.30;94388.06;5082295;28;20031;-54
2022/08/21 01:42:06;;;;;;;8.05;4.07;;;;;;;24.93;60.29;94392.75;5094043;28;20081;-53
2022/08/21 01:44:32;;;;;;;8.23;4.47;;;;;;;24.92;60.10;94380.38;5096255;28;20032;-54
2022/08/21 01:46:58;;;;;;;6.05;3.78;;;;;;;24.90;60.54;94383.66;5106320;28;20113;-55
2022/08/21 01:49:24;;;;;;;5.32;3.50;;;;;;;24.72;60.56;94367.47;5107225;28;20077;-55
2022/08/21 01:51:49;;;;;;;6.80;3.17;;;;;;;24.83;60.09;94376.13;5104873;28;20103;-55
2022/08/21 01:54:15;;;;;;;7.97;3.58;;;;;;;24.88;59.75;94390.91;5106698;28;20016;-54
2022/08/21 01:56:42;;;;;;;5.43;3.28;;;;;;;24.84;60.08;94374.88;5104073;28;20057;-54
2022/08/21 01:59:08;;;;;;;7.20;3.13;;;;;;;24.87;60.21;94379.25;5059928;28;20061;-56
2022/08/21 02:01:33;;;;;;;8.40;3.53;;;;;;;24.93;59.94;94388.06;5055762;28;20053;-54
2022/08/21 02:03:59;;;;;;;5.60;2.97;;;;;;;24.88;59.63;94380.72;5065646;28;20036;-54
2022/08/21 02:06:24;;;;;;;5.53;2.67;;;;;;;24.93;59.51;94398.97;5063796;28;20039;-54
2022/08/21 02:08:50;;;;;;;6.65;2.50;;;;;;;24.86;59.60;94398.91;5064509;28;20040;-55
2022/08/21 02:11:15;;;;;;;7.22;3.13;;;;;;;24.82;59.75;94396.50;5063395;28;20037;-56
2022/08/21 02:13:41;;;;;;;4.15;2.40;;;;;;;24.78;59.86;94381.72;5065590;28;20036;-55
2022/08/21 02:16:07;;;;;;;7.63;2.40;;;;;;;24.86;59.42;94388.72;5064847;28;20024;-55
2022/08/21 02:18:33;;;;;;;5.75;2.95;;;;;;;24.92;59.26;94397.50;5066090;28;20028;-55
2022/08/21 02:20:59;;;;;;;7.20;3.03;;;;;;;24.96;59.46;94400.63;5064995;28;20055;-56
2022/08/21 02:23:24;;;;;;;5.50;2.80;;;;;;;25.02;59.13;94398.53;5065187;28;20040;-56
2022/08/21 02:25:50;;;;;;;5.72;2.72;;;;;;;24.87;59.46;94395.66;5064986;28;20507;-54
2022/08/21 02:28:15;;;;;;;7.18;2.80;;;;;;;24.92;59.63;94405.69;5063570;28;20048;-55
2022/08/21 02:30:43;;;;;;;5.93;2.70;;;;;;;24.83;59.83;94405.44;5064709;28;20679;-55
2022/08/21 02:33:09;;;;;;;6.57;2.65;;;;;;;24.81;59.33;94397.03;5065169;28;20033;-55
2022/08/21 02:35:35;;;;;;;7.47;3.35;;;;;;;24.88;59.64;94413.47;5064924;28;20067;-55
2022/08/21 02:38:03;;;;;;;5.93;2.75;;;;;;;24.90;59.69;94410.22;5063749;28;20111;-54
2022/08/21 02:40:31;;;;;;;5.70;3.25;;;;;;;24.91;59.48;94404.22;5052593;28;20055;-55
2022/08/21 02:42:58;;;;;;;5.00;2.90;;;;;;;24.90;59.85;94404.75;5059577;28;20414;-54
2022/08/21 02:45:23;;;;;;;5.38;3.72;;;;;;;24.80;60.24;94406.50;5064391;28;20033;-55
2022/08/21 02:47:50;;;;;;;6.28;3.20;;;;;;;24.86;60.06;94399.63;5064186;28;20548;-54
2022/08/21 02:50:20;;;;;;;5.15;3.58;;;;;;;24.86;60.01;94404.38;5065436;28;20053;-55
2022/08/21 02:52:46;;;;;;;5.13;3.40;;;;;;;24.78;60.32;94408.28;5063378;28;20032;-55
2022/08/21 02:55:11;;;;;;;9.05;3.45;;;;;;;24.80;60.17;94406.50;5064595;28;20048;-55
2022/08/21 02:57:37;;;;;;;7.13;3.65;;;;;;;24.84;59.86;94402.19;5064720;28;20033;-56
2022/08/21 03:00:04;;;;;;;9.05;3.67;;;;;;;24.83;60.03;94395.25;5064977;28;20041;-55
2022/08/21 03:02:30;;;;;;;10.68;3.55;;;;;;;24.82;59.71;94404.69;5028899;28;20159;-55
2022/08/21 03:04:56;;;;;;;5.80;3.05;;;;;;;24.81;59.85;94407.94;5053777;28;20531;-55
2022/08/21 03:07:21;;;;;;;7.18;3.28;;;;;;;24.80;59.92;94411.22;5063733;28;20135;-57
2022/08/21 03:09:47;;;;;;;5.07;2.65;;;;;;;24.80;60.06;94413.94;5066225;28;20492;-57
2022/08/21 03:12:12;;;;;;;7.65;2.83;;;;;;;24.81;59.88;94413.41;5051728;28;20044;-56
2022/08/21 03:14:38;;;;;;;3.92;2.60;;;;;;;24.83;59.89;94410.91;5064589;28;20032;-55
2022/08/21 03:17:04;;;;;;;8.20;2.80;;;;;;;24.86;59.70;94399.63;5063657;28;20789;-55
2022/08/21 03:19:29;;;;;;;6.35;3.00;;;;;;;24.81;60.11;94405.22;5064989;28;20048;-55
2022/08/21 03:21:55;;;;;;;4.88;2.78;;;;;;;24.77;59.75;94401.34;5059441;28;20032;-55
2022/08/21 03:24:20;;;;;;;7.18;3.30;;;;;;;24.85;59.73;94403.63;5051358;28;20016;-55
2022/08/21 03:26:46;;;;;;;6.70;3.63;;;;;;;24.77;60.29;94406.81;5063244;28;20056;-56
2022/08/21 03:29:11;;;;;;;7.00;3.33;;;;;;;24.69;60.55;94406.03;5065129;28;20835;-56
2022/08/21 03:31:37;;;;;;;5.60;3.17;;;;;;;24.74;60.49;94399.69;5062516;28;20047;-55
2022/08/21 03:34:02;;;;;;;7.03;3.30;;;;;;;24.69;60.40;94406.03;5063572;28;20131;-55
2022/08/21 03:36:27;;;;;;;6.38;3.40;;;;;;;24.82;60.00;94392.31;5062739;28;20033;-56
2022/08/21 03:38:53;;;;;;;7.47;3.70;;;;;;;24.77;60.27;94396.66;5054495;28;20045;-54
2022/08/21 03:41:18;;;;;;;8.60;4.13;;;;;;;24.75;60.43;94398.44;5062950;28;20047;-54
2022/08/21 03:43:44;;;;;;;7.50;4.43;;;;;;;24.77;60.44;94391.19;5063280;28;20615;-54
2022/08/21 03:46:09;;;;;;;12.38;6.43;;;;;;;24.74;60.64;94380.56;5062982;28;20055;-55
2022/08/21 03:48:35;;;;;;;9.73;6.10;;;;;;;24.78;60.51;94392.63;5061850;28;20024;-55
2022/08/21 03:51:01;;;;;;;12.13;6.20;;;;;;;24.83;60.31;94400.69;5062279;28;20499;-55
2022/08/21 03:53:27;;;;;;;12.93;7.15;;;;;;;24.66;61.06;94407.09;5060132;28;20094;-55
2022/08/21 03:55:53;;;;;;;13.73;7.75;;;;;;;24.76;61.06;94411.56;5063470;28;20041;-57
2022/08/21 03:58:20;;;;;;;12.80;8.07;;;;;;;24.64;61.31;94415.09;5062164;28;20489;-55
2022/08/21 04:00:46;;;;;;;12.90;8.05;;;;;;;24.67;60.94;94420.22;5063231;28;20498;-55
2022/08/21 04:03:12;;;;;;;14.82;8.20;;;;;;;24.53;61.55;94423.53;5061429;28;20040;-54
2022/08/21 04:05:37;;;;;;;14.55;9.35;;;;;;;24.46;61.86;94421.47;5062057;28;20518;-55
2022/08/21 04:08:03;;;;;;;13.95;8.65;;;;;;;24.42;62.11;94426.50;5059316;28;20033;-55
2022/08/21 04:10:30;;;;;;;14.95;8.70;;;;;;;24.58;61.15;94428.13;5057719;28;20052;-55
2022/08/21 04:12:55;;;;;;;14.05;8.25;;;;;;;24.63;61.03;94425.25;5061973;28;20040;-55
2022/08/21 04:15:21;;;;;;;11.73;6.82;;;;;;;24.72;60.42;94427.53;5063556;28;20487;-55
2022/08/21 04:17:48;;;;;;;10.48;6.28;;;;;;;24.57;61.00;94427.41;5062881;28;20066;-54
2022/08/21 04:20:13;;;;;;;8.95;5.75;;;;;;;24.59;60.61;94413.22;5063988;28;20041;-57
2022/08/21 04:22:39;;;;;;;7.53;4.60;;;;;;;24.67;60.03;94419.50;5063074;28;20485;-55
2022/08/21 04:25:05;;;;;;;8.63;4.50;;;;;;;24.65;60.06;94411.06;5063751;28;20029;-55
2022/08/21 04:27:30;;;;;;;10.30;3.67;;;;;;;24.72;59.79;94415.88;5062044;28;20134;-55
2022/08/21 04:29:56;;;;;;;6.57;3.63;;;;;;;24.63;59.82;94416.34;5050082;28;20033;-54
2022/08/21 04:32:24;;;;;;;5.78;3.15;;;;;;;24.58;60.03;94422.69;5055477;28;20037;-54
2022/08/21 04:34:50;;;;;;;8.05;3.78;;;;;;;24.50;60.10;94406.22;5056818;28;20839;-55
2022/08/21 04:37:15;;;;;;;5.95;3.35;;;;;;;24.51;59.66;94391.31;5061481;28;20040;-56
2022/08/21 04:39:42;;;;;;;6.65;3.42;;;;;;;24.69;59.47;94416.94;5059790;28;20025;-55
2022/08/21 04:42:08;;;;;;;5.88;2.70;;;;;;;24.65;59.47;94422.00;5056059;28;20025;-57
2022/08/21 04:44:34;;;;;;;5.38;3.15;;;;;;;24.56;59.96;94414.28;5059170;28;20128;-55
2022/08/21 04:46:59;;;;;;;7.07;3.53;;;;;;;24.31;60.33;94377.59;5062480;28;20542;-55
2022/08/21 04:49:24;;;;;;;6.43;2.97;;;;;;;24.63;60.09;94410.88;5062465;28;20435;-54
2022/08/21 04:51:50;;;;;;;6.88;3.47;;;;;;;24.59;59.90;94413.22;5055793;28;20032;-54
2022/08/21 04:54:22;;;;;;;6.80;3.72;;;;;;;24.68;59.75;94410.00;5037201;28;20017;-54
2022/08/21 04:56:55;;;;;;;5.88;3.15;;;;;;;24.68;60.16;94415.47;5062782;28;20583;-55
2022/08/21 04:59:26;;;;;;;6.93;3.30;;;;;;;24.04;60.80;94318.94;5061254;28;20044;-54
2022/08/21 05:01:53;;;;;;;12.15;4.15;;;;;;;24.37;60.56;94357.13;5042635;28;20078;-55
2022/08/21 05:04:21;;;;;;;6.85;4.20;;;;;;;24.58;60.79;94407.03;5055658;28;20033;-54
2022/08/21 05:06:47;;;;;;;7.63;3.95;;;;;;;24.53;60.97;94409.91;5065722;28;20032;-54
2022/08/21 05:09:14;;;;;;;6.32;3.60;;;;;;;24.39;61.44;94405.72;5057987;28;20641;-55
2022/08/21 05:11:40;;;;;;;7.05;4.68;;;;;;;24.47;61.13;94407.28;5044726;28;20572;-55
2022/08/21 05:14:05;;;;;;;15.85;5.30;;;;;;;24.53;61.43;94420.81;5062290;28;20112;-56
2022/08/21 05:16:31;;;;;;;8.57;4.53;;;;;;;24.12;62.04;94368.84;5061925;28;20040;-56
2022/08/21 05:18:56;;;;;;;7.22;4.25;;;;;;;24.45;62.19;94414.53;5063266;28;20066;-55
2022/08/21 05:21:22;;;;;;;6.50;4.50;;;;;;;24.38;62.10;94426.13;5057014;28;20419;-55
2022/08/21 05:23:47;;;;;;;6.72;4.53;;;;;;;24.48;61.87;94424.38;5057516;28;20461;-54
2022/08/21 05:26:12;;;;;;;8.13;4.80;;;;;;;24.41;61.96;94420.31;5057563;28;20048;-56
2022/08/21 05:28:38;;;;;;;6.95;4.18;;;;;;;24.45;62.16;94419.97;5060953;28;20056;-55
2022/08/21 05:31:03;;;;;;;8.25;4.13;;;;;;;24.41;61.76;94420.31;5061820;28;20050;-56
2022/08/21 05:33:29;;;;;;;9.43;4.18;;;;;;;24.35;62.07;94399.88;5066497;28;20091;-56
2022/08/21 05:35:55;;;;;;;5.75;4.25;;;;;;;24.29;61.78;94391.06;5062454;28;20032;-56
2022/08/21 05:38:21;;;;;;;7.80;4.65;;;;;;;24.44;61.75;94407.63;5061263;28;20044;-55
2022/08/21 05:40:47;;;;;;;9.98;4.03;;;;;;;24.39;61.70;94394.81;5064863;28;20029;-54
2022/08/21 05:43:13;;;;;;;6.75;4.53;;;;;;;24.53;61.71;94405.16;5049306;28;20036;-55
2022/08/21 05:45:38;;;;;;;7.68;4.15;;;;;;;24.49;62.01;94404.03;5062923;28;20051;-55
2022/08/21 05:48:08;;;;;;;8.23;4.32;;;;;;;24.64;61.50;94410.34;5062295;28;20045;-55
2022/08/21 05:50:34;;;;;;;6.40;4.70;;;;;;;24.64;61.73;94401.44;5065297;28;20032;-55
2022/08/21 05:53:00;;;;;;;9.02;4.03;;;;;;;24.80;61.18;94405.75;5068945;28;20041;-55
2022/08/21 05:55:25;;;;;;;6.40;4.15;;;;;;;24.78;61.16;94402.84;5062169;28;20086;-55
2022/08/21 05:57:52;;;;;;;8.45;4.78;;;;;;;24.78;60.61;94380.97;5064042;28;20119;-55
2022/08/21 06:00:17;;;;;;;6.18;3.95;;;;;;;24.96;60.71;94403.38;5062725;28;20049;-57
2022/08/21 06:02:43;;;;;;;5.82;4.50;;;;;;;25.05;60.21;94408.41;5066940;28;20028;-53
2022/08/21 06:05:08;;;;;;;8.20;4.30;;;;;;;25.08;60.07;94410.06;5065931;28;20041;-55
2022/08/21 06:07:34;;;;;;;6.15;4.18;;;;;;;25.01;59.26;94394.31;5064495;28;20044;-54
2022/08/21 06:09:59;;;;;;;6.50;3.80;;;;;;;25.25;59.12;94402.16;5046649;28;20380;-56
2022/08/21 06:12:25;;;;;;;9.50;4.28;;;;;;;25.42;59.06;94399.72;5066366;28;20036;-56
2022/08/21 06:14:51;;;;;;;7.47;3.92;;;;;;;25.25;58.87;94374.84;5061301;28;20037;-55
2022/08/21 06:17:17;;;;;;;8.60;3.92;;;;;;;25.53;58.67;94405.63;5063290;28;20052;-55
2022/08/21 06:19:42;;;;;;;8.13;4.18;;;;;;;25.70;58.45;94397.72;5067641;28;20071;-54
2022/08/21 06:22:08;;;;;;;7.63;4.15;;;;;;;25.65;58.26;94398.63;5056932;28;20083;-54
2022/08/21 06:24:34;;;;;;;7.30;4.13;;;;;;;25.75;58.05;94399.56;5063943;28;20454;-55
2022/08/21 06:27:07;;;;;;;6.72;3.88;;;;;;;25.81;57.55;94387.22;5064651;28;20044;-57
2022/08/21 06:29:33;;;;;;;10.23;4.05;;;;;;;25.90;57.47;94394.94;5051269;28;20041;-56
2022/08/21 06:31:58;;;;;;;6.55;4.35;;;;;;;25.94;57.24;94400.75;5058794;28;20056;-56
2022/08/21 06:34:24;;;;;;;6.20;4.22;;;;;;;25.98;56.96;94390.22;5058747;28;20072;-56
2022/08/21 06:36:49;;;;;;;9.55;4.40;;;;;;;26.02;57.17;94398.81;5051150;28;20514;-57
2022/08/21 06:39:15;;;;;;;8.07;4.80;;;;;;;26.13;56.78;94401.22;5057592;28;20858;-55
2022/08/21 06:41:40;;;;;;;7.50;4.97;;;;;;;26.17;56.56;94401.59;5055970;28;20032;-55
2022/08/21 06:44:06;;;;;;;6.05;4.40;;;;;;;26.28;56.45;94406.78;5060713;28;20044;-55
2022/08/21 06:46:31;;;;;;;8.15;4.10;;;;;;;26.24;56.81;94400.88;5060228;28;20036;-55
2022/08/21 06:48:57;;;;;;;9.52;5.28;;;;;;;26.30;56.51;94401.47;5060550;28;20019;-55
2022/08/21 06:51:23;;;;;;;6.97;5.03;;;;;;;26.47;56.11;94402.44;5059887;28;20021;-55
2022/08/21 06:53:49;;;;;;;9.88;5.18;;;;;;;26.52;56.24;94400.81;5063879;28;20036;-56
2022/08/21 06:56:14;;;;;;;9.05;4.60;;;;;;;26.53;56.17;94402.25;5063039;28;20041;-56
2022/08/21 06:58:40;;;;;;;8.88;4.60;;;;;;;26.50;55.96;94401.38;5055096;28;20055;-56
2022/08/21 07:01:05;;;;;;;7.47;4.70;;;;;;;26.55;55.42;94416.16;5058104;28;20292;-55
2022/08/21 07:03:33;;;;;;;8.02;4.90;;;;;;;26.52;55.34;94409.03;5064700;28;20024;-56
2022/08/21 07:05:58;;;;;;;7.10;4.60;;;;;;;26.67;55.24;94420.03;5063016;28;20110;-55
2022/08/21 07:08:24;;;;;;;9.30;5.22;;;;;;;26.71;55.29;94417.66;5063855;28;20487;-55
2022/08/21 07:10:52;;;;;;;8.68;4.70;;;;;;;26.72;54.76;94410.91;5060449;28;20044;-56
2022/08/21 07:13:18;;;;;;;9.95;5.07;;;;;;;26.67;54.74;94403.59;5063476;28;20472;-56
2022/08/21 07:15:44;;;;;;;7.07;5.20;;;;;;;26.86;54.38;94413.66;5059610;28;20048;-55
2022/08/21 07:18:10;;;;;;;9.00;5.45;;;;;;;26.76;54.37;94412.00;5062782;28;20059;-55
2022/08/21 07:20:35;;;;;;;8.70;5.38;;;;;;;26.79;54.42;94417.09;5063385;28;20036;-55
2022/08/21 07:23:04;;;;;;;7.40;5.15;;;;;;;26.81;54.06;94420.03;5058161;28;20525;-55
2022/08/21 07:25:29;;;;;;;7.30;4.85;;;;;;;26.82;54.30;94410.53;5045040;28;20037;-55
2022/08/21 07:27:55;;;;;;;9.13;5.68;;;;;;;26.93;53.78;94415.69;5063385;28;20017;-55
2022/08/21 07:30:21;;;;;;;9.60;5.18;;;;;;;26.92;53.79;94406.03;5060011;28;20023;-55
2022/08/21 07:32:49;;;;;;;6.85;5.32;;;;;;;27.01;53.62;94405.47;5063548;28;20036;-58
2022/08/21 07:35:14;;;;;;;9.98;5.70;;;;;;;27.06;53.83;94401.81;5062781;28;20036;-56
2022/08/21 07:37:40;;;;;;;10.82;4.93;;;;;;;27.16;53.05;94394.53;5055746;28;20101;-56
2022/08/21 07:40:06;;;;;;;6.70;4.35;;;;;;;27.28;52.59;94392.88;5057811;28;20032;-56
2022/08/21 07:42:31;;;;;;;7.03;4.60;;;;;;;27.11;53.31;94392.69;5058432;28;20558;-56
2022/08/21 07:44:57;;;;;;;8.98;4.95;;;;;;;27.24;53.12;94389.75;5062253;28;20041;-55
2022/08/21 07:47:22;;;;;;;8.88;3.85;;;;;;;27.25;52.51;94388.47;5058274;28;20051;-56
2022/08/21 07:49:48;;;;;;;8.40;3.92;;;;;;;27.25;52.44;94391.22;5061086;28;20048;-55
2022/08/21 07:52:13;;;;;;;8.70;4.28;;;;;;;27.36;52.16;94385.34;5060430;28;20045;-56
2022/08/21 07:54:39;;;;;;;9.85;4.20;;;;;;;27.37;52.16;94392.31;5050700;28;20300;-57
2022/08/21 07:57:04;;;;;;;7.80;4.55;;;;;;;27.43;52.42;94384.63;5059368;28;20041;-56
2022/08/21 07:59:30;;;;;;;7.75;4.53;;;;;;;27.47;52.06;94387.72;5068510;28;20101;-56
2022/08/21 08:01:56;;;;;;;6.93;4.53;;;;;;;27.42;52.30;94388.63;5081617;28;20040;-55
2022/08/21 08:04:21;;;;;;;8.77;5.38;;;;;;;26.97;52.81;94394.13;5077782;28;20096;-55
2022/08/21 08:06:47;;;;;;;7.95;4.65;;;;;;;27.23;52.36;94387.56;5084407;28;20529;-56
2022/08/21 08:09:12;;;;;;;12.15;4.88;;;;;;;27.44;51.77;94397.03;5082731;28;20036;-54
2022/08/21 08:11:38;;;;;;;7.32;4.78;;;;;;;27.45;51.10;94376.56;5081091;28;20039;-55
2022/08/21 08:14:04;;;;;;;8.65;4.85;;;;;;;27.47;51.67;94395.94;5071292;28;20458;-55
2022/08/21 08:16:29;;;;;;;9.23;5.13;;;;;;;27.50;51.19;94383.91;5071624;28;20044;-54
2022/08/21 08:18:55;;;;;;;8.95;5.00;;;;;;;27.58;51.51;94392.84;5082482;28;20410;-56
2022/08/21 08:21:21;;;;;;;8.65;5.10;;;;;;;27.59;51.01;94383.31;5083765;28;20875;-60
2022/08/21 08:23:46;;;;;;;10.25;5.38;;;;;;;27.55;51.45;94380.22;5083639;28;20040;-55
2022/08/21 08:26:12;;;;;;;10.40;5.63;;;;;;;27.12;50.90;94311.19;5082649;28;20567;-57
2022/08/21 08:28:37;;;;;;;10.70;5.60;;;;;;;27.70;51.67;94391.16;5075492;28;20028;-55
2022/08/21 08:31:03;;;;;;;7.97;5.05;;;;;;;27.65;51.22;94378.38;5085329;28;20489;-59
2022/08/21 08:33:29;;;;;;;8.00;4.68;;;;;;;27.60;51.53;94376.56;5082675;28;20083;-55
2022/08/21 08:35:54;;;;;;;7.43;5.00;;;;;;;27.81;50.74;94386.75;5083434;28;20093;-56
2022/08/21 08:38:21;;;;;;;9.25;5.18;;;;;;;27.76;51.12;94384.94;5080651;28;20040;-56
2022/08/21 08:41:11;;;;;;;8.95;5.43;;;;;;;27.60;50.44;94382.06;5083109;28;20039;-55
2022/08/21 08:43:37;;;;;;;8.73;5.40;;;;;;;27.69;50.23;94378.75;5081762;28;20028;-55
2022/08/21 08:46:04;;;;;;;7.80;4.90;;;;;;;27.69;50.17;94378.75;5080852;28;20028;-54
2022/08/21 08:48:51;;;;;;;8.23;5.93;;;;;;;27.79;50.19;94394.09;5064740;28;20342;-56
2022/08/21 08:51:37;;;;;;;10.05;5.55;;;;;;;27.94;50.12;94389.28;5080353;28;20625;-55
2022/08/21 08:54:04;;;;;;;9.88;6.57;;;;;;;27.82;50.40;94373.75;5083453;28;20043;-55
2022/08/21 08:56:33;;;;;;;8.80;5.47;;;;;;;27.82;51.87;94385.47;5061095;28;20052;-56
2022/08/21 08:59:03;;;;;;;11.07;5.90;;;;;;;27.88;51.46;94375.00;5062399;28;20349;-55
2022/08/21 09:01:29;;;;;;;8.13;5.43;;;;;;;27.80;50.72;94343.38;5060363;28;20911;-55
2022/08/21 09:03:54;;;;;;;11.95;5.13;;;;;;;28.07;50.54;94380.06;5040494;28;20036;-55
2022/08/21 09:06:42;;;;;;;8.43;5.15;;;;;;;28.19;49.88;94365.41;5070566;28;20033;-57
2022/08/21 09:09:22;;;;;;;7.97;5.20;;;;;;;28.28;50.24;94367.53;5064674;28;20597;-57
2022/08/21 09:12:05;;;;;;;;;;;;;;;28.28;49.36;94362.03;5074890;28;20036;-55
2022/08/21 09:14:43;;;;;;;7.32;4.18;;;;;;;28.37;48.58;94364.94;5063242;28;19924;-56
2022/08/21 09:17:30;;;;;;;6.72;4.47;;;;;;;28.45;48.10;94359.41;5057061;28;20083;-55
2022/08/21 09:20:29;;;;;;;6.03;3.75;;;;;;;28.42;48.38;94360.53;5057724;28;20072;-57
2022/08/21 09:23:05;;;;;;;6.55;3.85;;;;;;;28.58;47.65;94350.88;5062434;28;20098;-56
2022/08/21 09:25:32;;;;;;;8.48;4.43;;;;;;;28.51;48.51;94332.44;5055425;28;20040;-57
2022/08/21 09:27:57;;;;;;;6.18;3.90;;;;;;;28.53;48.49;94349.09;5047357;28;20014;-56
2022/08/21 09:30:31;;;;;;;9.48;5.13;;;;;;;28.75;49.49;94349.69;5069051;28;20031;-55
2022/08/21 09:32:56;;;;;;;7.53;4.88;;;;;;;28.36;48.44;94346.28;5054385;28;20037;-56
2022/08/21 09:35:22;;;;;;;8.85;4.10;;;;;;;28.61;48.38;94344.28;5060025;28;20040;-56
2022/08/21 09:37:51;;;;;;;8.77;4.10;;;;;;;28.56;48.55;94347.97;5043574;28;20029;-59
2022/08/21 09:40:33;;;;;;;5.90;3.60;;;;;;;28.72;48.06;94339.81;5061036;28;20048;-55
2022/08/21 09:43:12;;;;;;;6.75;3.67;;;;;;;28.87;47.52;94345.22;5058294;28;20136;-54
2022/08/21 09:45:39;;;;;;;7.43;4.07;;;;;;;28.90;47.58;94338.59;5054990;28;20149;-55
2022/08/21 09:48:18;;;;;;;8.00;3.83;;;;;;;28.89;47.67;94341.91;5057225;28;20120;-54
2022/08/21 09:50:44;;;;;;;7.97;4.25;;;;;;;28.78;47.66;94332.09;5055847;28;20033;-55
2022/08/21 09:53:37;;;;;;;7.93;4.20;;;;;;;28.86;47.04;94338.28;5066402;28;20040;-55
2022/08/21 09:58:49;;;;;;;7.47;3.47;;;;;;;28.96;46.85;94336.34;5054830;28;20055;-55
2022/08/21 10:01:17;;;;;;;6.95;3.80;;;;;;;28.94;46.87;94330.69;5056436;28;20482;-55
2022/08/21 10:03:43;;;;;;;8.55;4.30;;;;;;;29.28;45.69;94325.25;5052898;28;20082;-54
2022/08/21 10:06:10;;;;;;;8.68;5.03;;;;;;;29.23;45.89;94332.47;5041827;28;20099;-54
2022/08/21 10:08:37;;;;;;;7.88;3.75;;;;;;;29.29;45.01;94329.47;5036734;28;20033;-54
2022/08/21 10:11:08;;;;;;;6.70;4.15;;;;;;;29.24;45.40;94322.19;5059617;28;20031;-53
2022/08/21 10:13:40;;;;;;;6.75;4.28;;;;;;;29.38;45.16;94320.59;5058703;28;20066;-53
2022/08/21 10:16:17;;;;;;;8.40;4.43;;;;;;;29.36;45.05;94318.41;5061903;28;20024;-54
2022/08/21 10:18:46;;;;;;;7.45;4.63;;;;;;;29.34;45.41;94325.75;5060407;28;20099;-54
2022/08/21 10:21:14;;;;;;;7.68;4.28;;;;;;;29.37;45.23;94314.38;5041908;28;20055;-53
2022/08/21 10:24:04;;;;;;;8.60;4.10;;;;;;;29.43;45.67;94305.84;5058461;28;20036;-54
2022/08/21 10:26:53;;;;;;;8.10;4.80;;;;;;;29.47;45.60;94306.91;5061993;28;20295;-54
2022/08/21 10:30:17;;;;;;;6.83;4.50;;;;;;;29.48;45.18;94304.91;5053281;28;20152;-54
2022/08/21 10:32:55;;;;;;;7.78;4.47;;;;;;;29.63;45.60;94299.22;5039152;28;20040;-55
2022/08/21 10:35:34;;;;;;;7.05;4.05;;;;;;;29.62;45.49;94300.53;5062506;28;20044;-54
2022/08/21 10:38:25;;;;;;;6.03;4.22;;;;;;;29.45;45.54;94292.28;5063852;28;20037;-54
2022/08/21 10:41:03;;;;;;;7.40;4.20;;;;;;;29.66;44.86;94285.06;5063335;28;20094;-54
2022/08/21 10:43:32;;;;;;;7.53;3.60;;;;;;;29.74;44.77;94291.19;5064203;28;20838;-54
2022/08/21 10:46:07;;;;;;;7.50;3.97;;;;;;;29.67;44.82;94296.78;5065067;28;20043;-55
2022/08/21 10:48:35;;;;;;;7.40;4.28;;;;;;;29.59;45.26;94301.66;5038880;28;20086;-54
2022/08/21 10:51:09;;;;;;;5.70;3.90;;;;;;;29.50;44.99;94285.78;5063198;28;20453;-54
2022/08/21 10:53:35;;;;;;;5.35;3.83;;;;;;;29.62;45.26;94281.25;5054753;28;20075;-55
2022/08/21 10:56:20;;;;;;;8.63;3.95;;;;;;;29.71;45.13;94275.81;5057325;28;20087;-53
2022/08/21 10:59:16;;;;;;;8.88;4.07;;;;;;;29.57;44.94;94265.72;5060855;28;20052;-55
2022/08/21 11:02:13;;;;;;;8.82;4.60;;;;;;;29.78;44.70;94275.72;5047586;28;20064;-54
2022/08/21 11:04:59;;;;;;;6.72;4.40;;;;;;;29.82;44.87;94270.56;5029001;28;20705;-56
2022/08/21 11:07:55;;;;;;;6.85;4.25;;;;;;;29.95;44.45;94259.19;5059335;28;20041;-54
2022/08/21 11:11:00;;;;;;;5.70;4.00;;;;;;;29.74;45.10;94258.88;5054235;28;20076;-53
2022/08/21 11:13:27;;;;;;;9.57;4.30;;;;;;;29.91;44.90;94247.88;5053616;28;20519;-53
2022/08/21 11:16:00;;;;;;;7.32;4.40;;;;;;;29.92;44.90;94241.06;5055117;28;20129;-54
2022/08/21 11:18:29;;;;;;;6.35;4.30;;;;;;;29.85;44.96;94236.38;5050004;28;20033;-53
2022/08/21 11:21:42;;;;;;;6.60;4.00;;;;;;;29.74;44.86;94236.84;5045710;28;20032;-54
2022/08/21 11:24:32;;;;;;;6.97;4.20;;;;;;;29.59;45.39;94243.84;5065104;28;20067;-54
2022/08/21 11:27:28;;;;;;;7.13;3.95;;;;;;;29.73;44.66;94257.44;5062577;28;20044;-56
2022/08/21 11:29:58;;;;;;;6.55;3.90;;;;;;;29.71;44.38;94240.03;5007574;28;20044;-55
2022/08/21 11:32:26;;;;;;;;;;;;;;;29.65;44.50;94236.81;5063487;28;20647;-53
2022/08/21 11:35:07;;;;;;;7.80;4.13;;;;;;;29.21;45.07;94246.28;5064672;28;20346;-54
2022/08/21 11:38:03;;;;;;;7.05;3.67;;;;;;;29.26;44.24;94240.56;5063951;28;20059;-54
2022/08/21 11:40:46;;;;;;;7.40;4.10;;;;;;;29.59;44.31;94238.34;5045272;28;20543;-53
2022/08/21 11:43:39;;;;;;;6.22;3.47;;;;;;;29.72;43.99;94239.47;5058617;28;20044;-54